Airfield :
LOGIN :

Register | Disclaimer

   EN    FR    IT 

 










Legend :    VFR   Marginal VFR   IFR   Intensive IFR   Very Intensive IFR
Visi :
Ceiling :
>= 8 km
>= 3000ft
5 to 8 km
1000 to 3000 ft
1500m to 5 km
500 to 1000 ft
800 to 1500m
200 to 500 ft
< 800m
< 200 ft
Symbols :   Thunderstorms  Fog  Heavy snow  Heavy precipitations  Wind > 20 kt
SIGMETs :     Misc.  Thunderstorms  Icing  Turbulence  Mountain Waves  Volcanic Ashes







- Airport Elevation : 1906 ft
- IATA code : INN


LOWI - Innsbruck

CURRENT METAR :
  • 181750Z 15015G26KT 110V190 9999 SCT080 BKN100 16/04 Q1022 NOSIG

EXPIRED METARs :
  • 181720Z 16020G34KT 090V190 9999 SCT080 SCT100 17/03 Q1022 NOSIG
  • 181650Z 13016G26KT 110V170 9999 SCT080 SCT100 18/03 Q1021 NOSIG
  • 181620Z 15003KT 100V200 9999 FEW075 SCT100 20/01 Q1021 NOSIG
  • 181550Z VRB03KT 9999 FEW075 SCT100 21/04 Q1021 NOSIG
  • 181520Z 35005KT 300V020 9999 FEW075 SCT100 21/02 Q1021 NOSIG

TAF TAF LOWI
Valid from the 18 at 18:00 until the 19 at 18:00 UTC


181715Z 1818/1918 07007KT 9999 SCT080 SCT100 TX22/1914Z TN06/1904Z
TEMPO 1818/1819 12020G35KT
BECMG 1819/1821 27005KT CAVOK
BECMG 1908/1910 08008KT 9999 FEW070
TEMPO 1912/1916 10010G20KT SCT080
No reported NOTAMs for that airfield.



MET'MAP, your aeronautical weather chart ! - Copyright ORBIFLY December 2007 - Disclaimer

ORBIFLY MET'MAP TEAM :

Programming & Development : Alexandra Zaïnal
Concept & Development : Baudouin d'Aumeries
Co-Development & Prog : Marc-Olivier Méhu
Technical & hardware support : Manuel Goepfert

Contact : metmap@orbifly.com




SOURCES & CREDITS :

   NOAA